Time;durP1;ratioP1;P1;durP2;ratioP2;P2;SDS_P1;SDS_P2;PMS_P1;PMS_P2;Temp;Humidity;BMP_temperature;BMP_pressure;BME280_temperature;BME280_humidity;BME280_pressure;Samples;Min_cycle;Max_cycle;Signal;HPM_P1;HPM_P2
2021/07/08 03:43:34;;;;;;;56.53;52.90;;;13.40;99.90;;;;;;5778331;24;20848;-78
2021/07/08 03:46:11;;;;;;;58.07;54.67;;;13.30;99.90;;;;;;5902667;24;20631;-83
2021/07/08 03:48:53;;;;;;;72.63;68.40;;;13.30;99.90;;;;;;5953400;24;20946;-85
2021/07/08 03:51:33;;;;;;;68.60;64.77;;;13.20;99.90;;;;;;6037366;23;20969;-85
2021/07/08 03:54:03;;;;;;;58.43;54.63;;;13.20;99.90;;;;;;6208405;23;20443;-85
2021/07/08 03:56:53;;;;;;;55.90;52.27;;;13.20;99.90;;;;;;6242587;23;20841;-84
2021/07/08 03:59:34;;;;;;;51.83;48.07;;;13.20;99.90;;;;;;6254432;23;20828;-84
2021/07/08 04:02:02;;;;;;;54.23;50.90;;;13.20;99.90;;;;;;6254318;23;20415;-85
2021/07/08 04:04:29;;;;;;;57.17;53.30;;;13.20;99.90;;;;;;6254267;23;20438;-81
2021/07/08 04:07:07;;;;;;;59.13;55.03;;;13.40;99.90;;;;;;6244185;23;20510;-84
2021/07/08 04:10:37;;;;;;;;;;;;;;;;;;;;;
2021/07/08 04:13:07;;;;;;;48.10;45.10;;;13.30;99.90;;;;;;6259786;22;20437;-81
2021/07/08 04:15:34;;;;;;;45.50;42.70;;;13.50;99.90;;;;;;6308587;22;20394;-80
2021/07/08 04:18:02;;;;;;;46.63;43.57;;;13.50;99.90;;;;;;6308444;22;20402;-83
2021/07/08 04:20:29;;;;;;;44.57;41.70;;;13.60;99.90;;;;;;6308443;22;20433;-83
2021/07/08 04:22:57;;;;;;;43.67;40.03;;;13.70;99.90;;;;;;6308635;22;20393;-82
2021/07/08 04:25:24;;;;;;;43.10;40.30;;;13.80;99.90;;;;;;6318482;22;20433;-81
2021/07/08 04:27:52;;;;;;;41.87;38.10;;;13.80;99.90;;;;;;6306911;22;20477;-81
2021/07/08 04:30:22;;;;;;;39.70;36.90;;;13.90;99.90;;;;;;6318343;22;20421;-82
2021/07/08 04:32:49;;;;;;;33.43;31.13;;;14.10;99.90;;;;;;6318435;22;20898;-81
2021/07/08 04:35:20;;;;;;;26.93;24.53;;;14.20;99.90;;;;;;6308026;22;20437;-82
2021/07/08 04:37:47;;;;;;;27.20;23.53;;;14.30;99.90;;;;;;6308343;22;20753;-82
2021/07/08 04:40:16;;;;;;;22.57;20.27;;;14.40;99.80;;;;;;6318810;22;20409;-80
2021/07/08 04:42:45;;;;;;;20.03;18.03;;;14.30;98.60;;;;;;6306928;22;20401;-84
2021/07/08 05:29:19;;;;;;;19.63;8.33;;;16.10;79.00;;;;;;6092799;23;20411;-81
2021/07/08 05:31:51;;;;;;;17.77;8.50;;;16.30;74.80;;;;;;6253500;23;20502;-84
2021/07/08 06:00:53;;;;;;;;;;;;;;;;;;;;;
2021/07/08 06:03:42;;;;;;;22.00;4.97;;;17.60;57.10;;;;;;6317619;22;20407;-86
2021/07/08 06:06:12;;;;;;;22.80;5.27;;;17.90;59.60;;;;;;6307260;22;20402;-86
2021/07/08 06:08:48;;;;;;;21.57;5.73;;;18.10;57.00;;;;;;6317868;22;20418;-86
2021/07/08 06:11:17;;;;;;;26.60;4.77;;;18.30;56.40;;;;;;6316231;22;20413;-86
2021/07/08 06:13:50;;;;;;;20.70;4.47;;;18.40;54.00;;;;;;6317491;22;20413;-85
2021/07/08 06:16:26;;;;;;;23.17;5.00;;;18.70;52.10;;;;;;6307343;22;20402;-88
2021/07/08 06:18:57;;;;;;;22.03;4.90;;;18.70;48.40;;;;;;6317319;22;20493;-86
2021/07/08 06:24:57;;;;;;;21.27;3.83;;;18.70;46.30;;;;;;6150222;23;20424;-84
2021/07/08 06:41:27;;;;;;;25.10;3.40;;;20.30;34.20;;;;;;6148723;23;20414;-92
2021/07/08 06:43:54;;;;;;;24.73;4.00;;;20.30;30.50;;;;;;6223254;22;20413;-93
2021/07/08 06:47:09;;;;;;;29.13;3.53;;;20.60;32.00;;;;;;6312405;22;20493;-91
2021/07/08 06:52:49;;;;;;;30.30;3.30;;;20.90;31.90;;;;;;6102105;23;20407;-89
2021/07/08 06:55:24;;;;;;;30.53;3.30;;;20.80;30.10;;;;;;6284903;22;20450;-91
2021/07/08 06:58:14;;;;;;;25.67;3.60;;;20.70;30.50;;;;;;6284009;22;20410;-89
2021/07/08 07:00:48;;;;;;;29.60;3.83;;;20.90;30.20;;;;;;6285446;22;20748;-92
2021/07/08 07:03:36;;;;;;;29.17;4.07;;;20.70;30.30;;;;;;6284751;22;20914;-85
2021/07/08 07:06:04;;;;;;;31.93;5.20;;;21.00;28.80;;;;;;6265424;22;20496;-84
2021/07/08 07:08:33;;;;;;;33.03;5.23;;;21.40;30.00;;;;;;6285103;22;20406;-82
2021/07/08 07:11:00;;;;;;;33.30;3.40;;;21.70;27.70;;;;;;6274686;22;20399;-86
2021/07/08 07:13:28;;;;;;;29.63;4.80;;;21.80;25.50;;;;;;6284309;22;20421;-88
2021/07/08 07:15:54;;;;;;;30.10;3.73;;;22.00;25.10;;;;;;6276193;22;20511;-87
2021/07/08 07:18:21;;;;;;;32.40;3.80;;;22.30;25.60;;;;;;6287292;22;20441;-84
2021/07/08 07:20:48;;;;;;;30.50;4.00;;;22.20;24.80;;;;;;6286924;22;20485;-87
2021/07/08 07:23:17;;;;;;;29.60;3.40;;;22.10;25.40;;;;;;6287078;22;20780;-86
2021/07/08 07:25:45;;;;;;;29.60;3.83;;;22.20;25.50;;;;;;6276749;22;20445;-84
2021/07/08 07:28:13;;;;;;;31.63;3.77;;;22.30;26.10;;;;;;6284796;22;20414;-86
2021/07/08 07:30:40;;;;;;;32.50;4.10;;;22.30;25.30;;;;;;6286650;22;20402;-86
2021/07/08 07:33:07;;;;;;;35.63;4.27;;;22.20;25.50;;;;;;6277064;22;20430;-90
2021/07/08 07:35:39;;;;;;;37.23;4.27;;;22.10;26.20;;;;;;6293629;22;20434;-85
2021/07/08 07:38:12;;;;;;;29.77;3.40;;;22.20;26.50;;;;;;6300386;22;20395;-86
2021/07/08 07:40:43;;;;;;;32.50;3.43;;;22.40;23.50;;;;;;6307990;22;20407;-95
2021/07/08 07:43:18;;;;;;;33.77;3.60;;;22.40;26.40;;;;;;6303845;22;20403;-96
2021/07/08 07:45:45;;;;;;;34.93;3.73;;;22.90;25.50;;;;;;6303104;22;20438;-95
2021/07/08 07:48:14;;;;;;;33.80;3.90;;;23.00;23.30;;;;;;6300745;22;20426;-92
2021/07/08 07:50:45;;;;;;;34.20;3.87;;;22.90;21.80;;;;;;6304203;22;20402;-96
2021/07/08 07:53:18;;;;;;;35.43;4.47;;;23.10;21.90;;;;;;6288587;22;20480;-93
2021/07/08 07:55:49;;;;;;;43.47;4.50;;;23.50;22.90;;;;;;6303027;22;20477;-95
2021/07/08 07:58:32;;;;;;;35.40;3.77;;;23.80;21.20;;;;;;6290743;22;20409;-95
2021/07/08 08:01:11;;;;;;;;;;;;;;;;;;;;;
2021/07/08 08:03:56;;;;;;;;;;;;;;;;;;;;;
2021/07/08 08:09:02;;;;;;;41.67;6.30;;;25.80;16.20;;;;;;6323220;22;20449;-93
2021/07/08 08:11:43;;;;;;;44.50;9.30;;;25.90;13.50;;;;;;6336963;22;20431;-95
2021/07/08 08:14:14;;;;;;;48.40;15.70;;;26.20;11.70;;;;;;6329779;22;20897;-96
2021/07/08 08:16:43;;;;;;;47.03;12.37;;;26.20;11.30;;;;;;6325604;22;20896;-96
2021/07/08 08:19:11;;;;;;;42.83;4.33;;;25.50;12.30;;;;;;6324764;22;20413;-95
2021/07/08 08:21:42;;;;;;;43.50;5.50;;;25.30;14.70;;;;;;6319938;22;20415;-96
2021/07/08 08:24:11;;;;;;;41.50;4.83;;;25.30;13.80;;;;;;6321932;22;20398;-94
2021/07/08 08:26:41;;;;;;;43.07;7.20;;;25.10;11.30;;;;;;6322854;22;20410;-92
2021/07/08 08:29:09;;;;;;;41.87;4.37;;;24.40;13.20;;;;;;6244419;22;20405;-90
2021/07/08 08:31:38;;;;;;;47.30;10.53;;;24.20;13.60;;;;;;6322495;22;20418;-94
2021/07/08 08:34:08;;;;;;;48.90;5.47;;;24.70;17.60;;;;;;6323491;22;20476;-94
2021/07/08 08:36:37;;;;;;;41.90;5.10;;;25.00;14.50;;;;;;6321548;22;20402;-94
2021/07/08 08:39:07;;;;;;;41.70;4.70;;;25.30;12.60;;;;;;6310722;22;20404;-92
2021/07/08 08:41:35;;;;;;;38.97;4.07;;;25.20;11.10;;;;;;6332259;22;20434;-96
2021/07/08 08:44:11;;;;;;;39.63;4.70;;;24.70;10.10;;;;;;6359046;22;20446;-94
2021/07/08 08:46:41;;;;;;;41.40;5.60;;;24.80;12.30;;;;;;6342020;22;20751;-90
2021/07/08 08:49:08;;;;;;;37.47;3.70;;;25.30;10.70;;;;;;6324719;22;20401;-92
2021/07/08 08:51:43;;;;;;;40.30;4.30;;;25.30;11.90;;;;;;6329578;22;20409;-94
2021/07/08 08:54:13;;;;;;;42.57;4.93;;;25.40;12.30;;;;;;6326623;22;20439;-93
2021/07/08 08:56:40;;;;;;;43.00;5.10;;;25.80;12.00;;;;;;6319092;22;20489;-78
2021/07/08 08:59:08;;;;;;;41.63;4.93;;;25.80;9.90;;;;;;6308285;22;20401;-80
2021/07/08 09:01:35;;;;;;;49.23;4.33;;;25.60;9.00;;;;;;6308193;22;20484;-80
2021/07/08 09:04:02;;;;;;;44.30;4.73;;;25.50;12.80;;;;;;6303943;22;20401;-79
2021/07/08 09:06:36;;;;;;;38.60;3.97;;;25.80;12.30;;;;;;6306468;22;20423;-80
2021/07/08 09:09:09;;;;;;;36.37;3.70;;;25.50;9.60;;;;;;6306708;22;20745;-81
2021/07/08 09:11:37;;;;;;;38.37;4.23;;;25.40;8.30;;;;;;6305041;22;20398;-80
2021/07/08 09:14:05;;;;;;;37.70;5.20;;;25.70;11.70;;;;;;6306403;22;20400;-80
2021/07/08 09:16:35;;;;;;;38.47;6.90;;;25.30;8.30;;;;;;6305980;22;20430;-81
2021/07/08 09:19:06;;;;;;;40.47;5.07;;;24.90;9.10;;;;;;6305649;22;20403;-81
2021/07/08 09:21:34;;;;;;;41.90;4.10;;;25.20;11.10;;;;;;6316583;22;20475;-82
2021/07/08 09:24:14;;;;;;;39.93;3.47;;;25.40;9.20;;;;;;6306381;22;20397;-82
2021/07/08 09:27:31;;;;;;;36.10;3.50;;;25.30;9.20;;;;;;6305363;22;20496;-85
2021/07/08 09:33:52;;;;;;;36.10;3.43;;;25.20;8.20;;;;;;6317759;22;20406;-84
2021/07/08 09:36:23;;;;;;;37.67;3.17;;;25.20;10.60;;;;;;6286033;22;20445;-84
2021/07/08 09:39:02;;;;;;;36.87;4.87;;;25.20;9.90;;;;;;6317744;22;20427;-83
2021/07/08 09:41:32;;;;;;;36.53;3.73;;;25.30;12.10;;;;;;6316046;22;20444;-86
2021/07/08 09:44:46;;;;;;;38.07;3.77;;;25.10;8.40;;;;;;6307098;22;20407;-84
2021/07/08 09:53:27;;;;;;;41.60;3.87;;;25.80;9.80;;;;;;6292386;22;20951;-87
2021/07/08 09:56:02;;;;;;;40.70;4.13;;;25.40;8.80;;;;;;6310169;22;20494;-87
2021/07/08 09:58:30;;;;;;;37.10;3.63;;;25.50;8.80;;;;;;6307121;22;20404;-92
2021/07/08 10:00:57;;;;;;;36.30;3.90;;;25.60;10.40;;;;;;6307970;22;20401;-91
2021/07/08 10:03:27;;;;;;;36.60;3.43;;;25.60;7.90;;;;;;6319104;22;20470;-83
2021/07/08 10:05:57;;;;;;;39.87;4.30;;;25.80;8.60;;;;;;6307314;22;20429;-84
2021/07/08 10:08:31;;;;;;;45.90;3.37;;;26.00;6.30;;;;;;6307318;22;20456;-83
2021/07/08 10:10:59;;;;;;;36.97;5.50;;;26.20;6.20;;;;;;6307450;22;20381;-84
2021/07/08 10:13:33;;;;;;;36.30;4.20;;;26.20;6.20;;;;;;6305877;22;20425;-83
2021/07/08 10:16:07;;;;;;;40.13;5.53;;;26.40;6.20;;;;;;6317327;22;20955;-83
2021/07/08 10:18:40;;;;;;;38.13;4.30;;;26.50;6.40;;;;;;6307547;22;20405;-82
2021/07/08 10:21:09;;;;;;;41.37;6.07;;;26.90;6.60;;;;;;6317965;22;21059;-83
2021/07/08 10:23:39;;;;;;;43.43;4.07;;;26.70;5.60;;;;;;6307092;22;20405;-81
2021/07/08 10:26:08;;;;;;;39.40;7.13;;;27.40;5.70;;;;;;6316986;22;20455;-81
2021/07/08 10:28:39;;;;;;;42.27;11.50;;;27.80;3.30;;;;;;6317738;22;20409;-81
2021/07/08 10:31:07;;;;;;;44.30;13.73;;;27.80;3.00;;;;;;6304658;22;20409;-81
2021/07/08 10:33:35;;;;;;;40.37;10.30;;;28.00;2.60;;;;;;6307540;22;20877;-81
2021/07/08 10:36:02;;;;;;;40.83;10.30;;;28.10;2.00;;;;;;6317591;22;20468;-80
2021/07/08 10:39:32;;;;;;;45.73;12.50;;;28.10;1.00;;;;;;6320884;22;20406;-94
2021/07/08 11:21:51;;;;;;;44.70;4.90;;;27.20;1.40;;;;;;6281185;22;20405;-89
2021/07/08 11:27:48;;;;;;;41.37;10.43;;;26.30;1.00;;;;;;6282640;22;20484;-91
2021/07/08 11:56:56;;;;;;;47.63;11.33;;;26.70;1.20;;;;;;6314110;22;20453;-86
2021/07/08 11:59:56;;;;;;;42.93;9.30;;;26.60;3.10;;;;;;6286447;22;20489;-90
2021/07/08 12:12:00;;;;;;;40.97;12.50;;;26.50;1.10;;;;;;6311336;22;20417;-94
2021/07/08 12:14:42;;;;;;;41.17;11.70;;;26.20;1.70;;;;;;6323599;22;20736;-94
2021/07/08 12:17:42;;;;;;;44.90;12.10;;;26.00;3.40;;;;;;6322964;22;20447;-92
2021/07/08 12:23:08;;;;;;;;;;;;;;;;;;;;;
2021/07/08 12:26:17;;;;;;;;;;;;;;;;;;;;;
2021/07/08 12:41:31;;;;;;;39.00;6.23;;;25.20;4.60;;;;;;6084325;23;20415;-94
2021/07/08 12:47:02;;;;;;;39.07;4.43;;;25.00;5.10;;;;;;6079700;23;20417;-93
2021/07/08 12:56:28;;;;;;;;;;;;;;;;;;;;;
2021/07/08 12:59:02;;;;;;;41.23;4.80;;;24.90;9.30;;;;;;6102619;23;20479;-91
2021/07/08 13:01:39;;;;;;;37.77;4.70;;;24.70;9.60;;;;;;6269278;22;20405;-92
2021/07/08 13:04:27;;;;;;;39.13;4.53;;;24.60;9.20;;;;;;6327245;22;20413;-92
2021/07/08 13:06:59;;;;;;;42.40;5.10;;;24.70;10.60;;;;;;6319803;22;20966;-91
2021/07/08 13:09:28;;;;;;;42.30;5.83;;;24.50;10.60;;;;;;6318336;22;20701;-91
2021/07/08 13:12:08;;;;;;;;;;;;;;;;;;;;;
2021/07/08 13:14:46;;;;;;;43.83;14.33;;;24.20;12.90;;;;;;6285618;22;20927;-92
2021/07/08 13:17:20;;;;;;;41.80;12.67;;;24.20;15.20;;;;;;6317148;22;20449;-90
2021/07/08 13:20:06;;;;;;;;;;;;;;;;;;;;;
2021/07/08 13:22:46;;;;;;;43.13;13.47;;;24.20;14.80;;;;;;6318630;22;20511;-94
2021/07/08 13:25:17;;;;;;;45.93;12.60;;;24.00;15.10;;;;;;6319981;22;20406;-93
2021/07/08 13:27:47;;;;;;;43.00;15.40;;;24.00;15.10;;;;;;6310676;22;20424;-92
2021/07/08 13:30:47;;;;;;;49.57;16.30;;;24.00;13.30;;;;;;6322234;22;20413;-92
2021/07/08 13:33:28;;;;;;;;;;;;;;;;;;;;;
2021/07/08 13:36:17;;;;;;;;;;;;;;;;;;;;;
2021/07/08 13:39:05;;;;;;;44.23;6.77;;;23.60;15.30;;;;;;6315921;22;20413;-90
2021/07/08 13:42:07;;;;;;;44.60;6.80;;;23.50;16.00;;;;;;6324797;22;20415;-92
2021/07/08 13:45:26;;;;;;;;;;;;;;;;;;;;;
2021/07/08 13:48:17;;;;;;;41.67;5.67;;;23.10;18.20;;;;;;6179517;23;20477;-92
2021/07/08 13:51:05;;;;;;;42.43;5.47;;;22.90;19.20;;;;;;6330141;22;20405;-90
2021/07/08 13:54:01;;;;;;;51.00;5.20;;;22.80;19.70;;;;;;6300979;22;20455;-90
2021/07/08 13:56:33;;;;;;;42.13;4.80;;;22.70;19.70;;;;;;6327848;22;20440;-93
2021/07/08 13:59:17;;;;;;;41.53;4.67;;;22.60;20.40;;;;;;6324109;22;20493;-82
2021/07/08 14:01:43;;;;;;;38.67;4.27;;;22.50;20.40;;;;;;6303581;22;20416;-77
2021/07/08 14:04:10;;;;;;;43.03;4.63;;;22.40;20.00;;;;;;6307705;22;20394;-76
2021/07/08 14:06:37;;;;;;;38.60;4.83;;;22.50;20.10;;;;;;6306525;22;20403;-75
2021/07/08 14:09:05;;;;;;;37.77;4.80;;;22.60;21.00;;;;;;6306135;22;20397;-76
2021/07/08 14:11:32;;;;;;;41.53;4.73;;;22.60;21.60;;;;;;6306045;22;20409;-77
2021/07/08 14:14:01;;;;;;;40.67;4.73;;;22.60;21.60;;;;;;6307120;22;20481;-76
2021/07/08 14:16:30;;;;;;;39.10;5.10;;;22.60;22.20;;;;;;6307095;22;20425;-77
2021/07/08 14:18:56;;;;;;;38.10;4.60;;;22.60;21.70;;;;;;6307128;22;20398;-80
2021/07/08 14:21:25;;;;;;;36.37;4.77;;;22.60;22.50;;;;;;6306333;22;20437;-76
2021/07/08 14:23:51;;;;;;;38.67;4.70;;;22.60;21.60;;;;;;6308271;22;20423;-76
2021/07/08 14:26:22;;;;;;;37.57;4.87;;;22.50;21.30;;;;;;6307834;22;20401;-77
2021/07/08 14:28:49;;;;;;;37.30;5.03;;;22.10;22.60;;;;;;6308879;22;20735;-77
2021/07/08 14:31:16;;;;;;;38.40;5.00;;;21.90;24.10;;;;;;6308332;22;20489;-77
2021/07/08 14:33:44;;;;;;;37.50;5.77;;;21.70;24.50;;;;;;6307907;22;20401;-77
2021/07/08 14:36:11;;;;;;;42.70;5.57;;;21.60;26.10;;;;;;6308994;22;20401;-81
2021/07/08 14:38:39;;;;;;;36.90;6.20;;;21.60;27.10;;;;;;6309718;22;20397;-81
2021/07/08 14:41:07;;;;;;;36.70;5.30;;;21.60;28.20;;;;;;6308360;22;20405;-77
2021/07/08 14:43:48;;;;;;;36.80;5.57;;;21.50;29.00;;;;;;6309876;22;20398;-77
2021/07/08 14:46:16;;;;;;;36.97;7.77;;;21.50;29.00;;;;;;6309516;22;20818;-83
2021/07/08 14:48:50;;;;;;;37.43;5.70;;;21.50;29.70;;;;;;6309592;22;20398;-81
2021/07/08 14:51:17;;;;;;;36.90;7.60;;;21.40;29.50;;;;;;6309580;22;20401;-78
2021/07/08 14:53:44;;;;;;;38.70;8.13;;;21.40;29.90;;;;;;6307462;22;20907;-77
2021/07/08 14:56:10;;;;;;;38.57;5.70;;;21.40;30.00;;;;;;6307337;22;20397;-77
2021/07/08 14:58:46;;;;;;;35.93;4.87;;;21.40;30.20;;;;;;6308435;22;20400;-85
2021/07/08 15:01:13;;;;;;;37.23;4.87;;;21.30;28.00;;;;;;6318872;22;20467;-89
2021/07/08 15:03:44;;;;;;;36.83;5.03;;;21.20;27.90;;;;;;6319190;22;20413;-88
2021/07/08 15:06:11;;;;;;;33.20;3.90;;;21.20;27.90;;;;;;6319645;22;20402;-89
2021/07/08 15:08:39;;;;;;;36.87;5.20;;;21.10;28.50;;;;;;6319724;22;20877;-87
2021/07/08 15:11:06;;;;;;;37.30;4.80;;;20.90;28.60;;;;;;6317764;22;20405;-86
2021/07/08 15:13:36;;;;;;;34.87;5.57;;;20.70;28.20;;;;;;6309064;22;20481;-89
2021/07/08 15:16:09;;;;;;;34.70;4.50;;;20.60;32.10;;;;;;6319562;22;20400;-90
2021/07/08 15:18:38;;;;;;;41.30;5.60;;;20.40;33.30;;;;;;6319265;22;20402;-89
2021/07/08 15:21:11;;;;;;;31.63;4.80;;;20.30;35.60;;;;;;6318746;22;20494;-88
2021/07/08 15:23:39;;;;;;;33.77;4.50;;;20.20;37.70;;;;;;6309071;22;20401;-89
2021/07/08 15:26:07;;;;;;;30.53;4.40;;;20.00;36.70;;;;;;6307244;22;20397;-88
2021/07/08 15:28:36;;;;;;;30.80;5.40;;;19.90;37.30;;;;;;6318976;22;20496;-89
2021/07/08 15:31:07;;;;;;;31.63;5.10;;;19.90;40.90;;;;;;6308973;22;20401;-89
2021/07/08 15:33:49;;;;;;;31.73;5.80;;;19.80;44.10;;;;;;6318879;22;20420;-90
2021/07/08 15:36:40;;;;;;;31.60;4.27;;;19.80;41.50;;;;;;6318552;22;20430;-92
2021/07/08 15:39:36;;;;;;;28.90;5.07;;;19.70;41.50;;;;;;6319194;22;20409;-91
2021/07/08 15:45:55;;;;;;;30.80;5.90;;;19.70;51.40;;;;;;6316592;22;20818;-91
2021/07/08 15:48:22;;;;;;;29.80;7.03;;;19.60;52.10;;;;;;6318617;22;20779;-90
2021/07/08 15:50:49;;;;;;;38.90;11.90;;;19.70;54.90;;;;;;6317459;22;20458;-83
2021/07/08 15:53:17;;;;;;;32.37;11.63;;;19.70;55.30;;;;;;6320778;22;20213;-95
2021/07/08 15:55:45;;;;;;;32.50;10.67;;;19.60;56.50;;;;;;6323318;22;20471;-94
2021/07/08 15:58:12;;;;;;;35.90;11.20;;;19.70;62.10;;;;;;6313746;22;20727;-94
2021/07/08 16:00:39;;;;;;;37.87;13.13;;;19.80;65.50;;;;;;6322384;22;20402;-84
2021/07/08 16:03:05;;;;;;;29.00;8.20;;;19.60;62.10;;;;;;6307447;22;20463;-92
2021/07/08 16:05:32;;;;;;;27.57;8.30;;;19.60;61.50;;;;;;6323468;22;20402;-94
2021/07/08 16:07:59;;;;;;;32.80;10.40;;;19.50;62.50;;;;;;6328732;22;20420;-95
2021/07/08 16:10:27;;;;;;;28.97;11.93;;;19.50;63.10;;;;;;6312526;22;20425;-93
2021/07/08 16:15:32;;;;;;;30.67;12.00;;;19.40;64.50;;;;;;6302427;22;20547;-92
2021/07/08 16:17:59;;;;;;;36.20;8.50;;;19.30;63.10;;;;;;6318555;22;20437;-90
2021/07/08 16:20:27;;;;;;;29.37;11.43;;;19.30;65.20;;;;;;6318202;22;20978;-90
2021/07/08 16:22:54;;;;;;;27.07;9.63;;;19.20;64.40;;;;;;6308211;22;20402;-90
2021/07/08 16:25:21;;;;;;;27.70;10.10;;;19.20;66.00;;;;;;6308485;22;20402;-91
2021/07/08 16:27:50;;;;;;;28.57;11.57;;;19.10;65.60;;;;;;6307126;22;20402;-91
2021/07/08 16:30:21;;;;;;;25.40;8.50;;;19.10;63.90;;;;;;6308357;22;20398;-91
2021/07/08 16:33:11;;;;;;;25.50;5.20;;;19.00;63.10;;;;;;6317922;22;20881;-90
2021/07/08 16:35:56;;;;;;;25.90;4.93;;;19.00;59.20;;;;;;6318218;22;20409;-90
2021/07/08 16:38:27;;;;;;;22.30;4.87;;;18.80;56.80;;;;;;6318192;22;20505;-90
2021/07/08 16:41:01;;;;;;;24.43;5.33;;;18.80;56.20;;;;;;6307904;22;20456;-89
2021/07/08 16:43:38;;;;;;;24.33;6.40;;;18.80;60.00;;;;;;6328053;22;20931;-92
2021/07/08 16:46:06;;;;;;;25.70;7.47;;;18.80;61.70;;;;;;6338348;22;20499;-92
2021/07/08 16:48:38;;;;;;;24.27;6.40;;;18.80;62.80;;;;;;6349826;22;20622;-92
2021/07/08 16:51:05;;;;;;;23.83;6.93;;;18.80;63.90;;;;;;6349376;22;20408;-89
2021/07/08 16:53:32;;;;;;;29.03;10.20;;;18.80;63.40;;;;;;6339266;22;20713;-92
2021/07/08 16:55:59;;;;;;;25.50;8.40;;;18.70;65.40;;;;;;6338826;22;20396;-89
2021/07/08 16:58:35;;;;;;;24.10;7.03;;;18.70;67.00;;;;;;6348209;22;20466;-90
2021/07/08 17:01:05;;;;;;;24.83;8.73;;;18.70;64.70;;;;;;6338658;22;20777;-89
2021/07/08 17:03:37;;;;;;;23.63;9.03;;;18.70;67.10;;;;;;6337543;22;20405;-88
2021/07/08 17:06:06;;;;;;;23.70;9.03;;;18.70;67.30;;;;;;6338907;22;20401;-92
2021/07/08 17:08:35;;;;;;;24.67;10.63;;;18.70;68.40;;;;;;6349378;22;20433;-92
2021/07/08 17:11:02;;;;;;;27.60;10.33;;;18.80;65.30;;;;;;6339613;22;20397;-82
2021/07/08 17:13:36;;;;;;;28.90;11.53;;;18.80;68.10;;;;;;6351154;22;20419;-92
2021/07/08 17:16:04;;;;;;;25.03;9.50;;;19.00;63.90;;;;;;6339600;22;20405;-91
2021/07/08 17:18:31;;;;;;;25.50;8.20;;;19.00;64.60;;;;;;6348882;22;20764;-89
2021/07/08 17:20:58;;;;;;;24.70;9.33;;;19.20;63.60;;;;;;6347301;22;20721;-88
2021/07/08 17:23:25;;;;;;;26.27;7.47;;;19.40;61.30;;;;;;6349257;22;20437;-92
2021/07/08 17:25:52;;;;;;;25.33;7.00;;;19.60;61.00;;;;;;6349311;22;20772;-90
2021/07/08 17:28:19;;;;;;;26.37;5.57;;;19.70;55.20;;;;;;6338169;22;20405;-93
2021/07/08 17:30:47;;;;;;;27.53;6.40;;;19.90;56.20;;;;;;6339347;22;20397;-92
2021/07/08 17:33:15;;;;;;;28.27;5.93;;;20.40;52.40;;;;;;6349166;22;20884;-91
2021/07/08 17:35:52;;;;;;;26.10;6.07;;;20.50;50.30;;;;;;6349681;22;20405;-92
2021/07/08 17:38:21;;;;;;;25.17;5.43;;;20.50;52.10;;;;;;6349025;22;20440;-90
2021/07/08 17:40:57;;;;;;;25.27;5.50;;;20.40;50.80;;;;;;6337451;22;20402;-90
2021/07/08 17:43:24;;;;;;;29.73;5.93;;;20.20;52.30;;;;;;6346596;22;20510;-91
2021/07/08 17:45:57;;;;;;;26.43;6.00;;;20.10;50.60;;;;;;6348556;22;20407;-90
2021/07/08 17:48:34;;;;;;;26.53;5.30;;;20.10;51.40;;;;;;6347954;22;20409;-90
2021/07/08 17:51:01;;;;;;;27.83;6.00;;;19.90;47.60;;;;;;6348163;22;20875;-93
2021/07/08 17:53:34;;;;;;;27.27;6.93;;;19.80;50.80;;;;;;6348022;22;20515;-92
2021/07/08 17:56:01;;;;;;;27.73;6.70;;;19.70;52.90;;;;;;6347371;22;20471;-91
2021/07/08 17:58:30;;;;;;;26.50;6.43;;;19.70;53.20;;;;;;6347282;22;20527;-92
2021/07/08 18:01:00;;;;;;;28.03;7.00;;;19.60;52.80;;;;;;6348193;22;20405;-93
2021/07/08 18:03:30;;;;;;;26.33;6.77;;;19.50;52.70;;;;;;6337831;22;20412;-93
2021/07/08 18:06:00;;;;;;;27.23;7.60;;;19.40;52.90;;;;;;6348870;22;20444;-94
2021/07/08 18:08:30;;;;;;;26.90;7.67;;;19.40;53.60;;;;;;6348747;22;20731;-93
2021/07/08 18:10:59;;;;;;;29.57;7.50;;;19.40;52.70;;;;;;6336762;22;20479;-94
2021/07/08 18:13:30;;;;;;;28.47;9.00;;;19.50;54.40;;;;;;6347398;22;20786;-92
2021/07/08 18:16:10;;;;;;;30.80;8.07;;;19.40;53.10;;;;;;6347820;22;20504;-93
2021/07/08 18:18:37;;;;;;;27.40;8.20;;;19.40;54.30;;;;;;6347742;22;20438;-92
2021/07/08 18:21:06;;;;;;;29.57;8.67;;;19.30;56.10;;;;;;6337953;22;20403;-82
2021/07/08 18:23:38;;;;;;;29.17;10.50;;;19.20;58.00;;;;;;6350122;22;20439;-93
2021/07/08 18:26:05;;;;;;;30.87;10.37;;;19.00;58.80;;;;;;6348042;22;20408;-92
2021/07/08 18:28:52;;;;;;;31.73;15.70;;;18.90;60.60;;;;;;6348372;22;20443;-93
2021/07/08 18:31:24;;;;;;;29.13;15.10;;;18.80;61.00;;;;;;6350813;22;20414;-91
2021/07/08 18:33:56;;;;;;;34.60;18.30;;;18.70;64.80;;;;;;6349094;22;20419;-92
2021/07/08 18:36:25;;;;;;;30.50;15.90;;;18.60;68.30;;;;;;6348670;22;20470;-92
2021/07/08 18:38:52;;;;;;;33.03;18.03;;;18.50;70.90;;;;;;6349104;22;20440;-93
2021/07/08 18:41:21;;;;;;;37.23;23.07;;;18.40;73.90;;;;;;6347807;22;20417;-93
2021/07/08 18:43:48;;;;;;;33.90;26.70;;;18.30;76.60;;;;;;6348784;22;20432;-93
2021/07/08 18:46:18;;;;;;;33.77;28.30;;;18.20;79.90;;;;;;6348960;22;20932;-93
2021/07/08 18:48:51;;;;;;;35.50;31.60;;;18.20;82.90;;;;;;6348599;22;20408;-93
2021/07/08 18:51:20;;;;;;;35.33;30.67;;;18.00;86.10;;;;;;6349073;22;20412;-93
2021/07/08 18:53:47;;;;;;;37.00;33.00;;;18.00;89.40;;;;;;6338548;22;20868;-90
2021/07/08 18:56:24;;;;;;;38.07;29.73;;;17.90;90.30;;;;;;6347533;22;20458;-93
2021/07/08 18:58:51;;;;;;;35.47;31.17;;;17.80;92.00;;;;;;6348986;22;20945;-94
2021/07/08 19:01:19;;;;;;;44.60;40.13;;;17.80;92.70;;;;;;6349953;22;20411;-92
2021/07/08 19:03:49;;;;;;;45.57;41.37;;;17.80;93.70;;;;;;6338862;22;20397;-92
2021/07/08 19:06:20;;;;;;;55.43;51.00;;;17.80;94.20;;;;;;6349282;22;20413;-92
2021/07/08 19:08:52;;;;;;;58.83;54.00;;;17.80;94.70;;;;;;6350206;22;20400;-94
2021/07/08 19:11:22;;;;;;;69.80;64.80;;;17.80;95.60;;;;;;6351134;22;20486;-93
2021/07/08 19:13:54;;;;;;;72.13;67.07;;;17.70;96.60;;;;;;6350814;22;20932;-92
2021/07/08 19:16:26;;;;;;;76.47;71.07;;;17.70;98.00;;;;;;6350579;22;20409;-92
2021/07/08 19:19:01;;;;;;;88.63;83.20;;;17.70;99.40;;;;;;6350773;22;20535;-91
2021/07/08 19:21:33;;;;;;;79.57;73.77;;;17.70;99.90;;;;;;6339668;22;20453;-93
2021/07/08 19:24:03;;;;;;;70.87;65.37;;;17.70;99.90;;;;;;6350560;22;20408;-92
2021/07/08 19:26:36;;;;;;;110.17;103.60;;;17.50;99.90;;;;;;6338321;22;20925;-92
2021/07/08 19:29:08;;;;;;;128.43;121.27;;;17.60;99.90;;;;;;6350947;22;20412;-91
2021/07/08 19:31:43;;;;;;;132.10;124.97;;;17.50;99.90;;;;;;6352009;22;20915;-93
2021/07/08 19:34:14;;;;;;;129.63;122.97;;;17.50;99.90;;;;;;6339963;22;20396;-92
2021/07/08 19:36:41;;;;;;;145.47;137.57;;;17.40;99.90;;;;;;6350252;22;20432;-92
2021/07/08 19:39:11;;;;;;;183.47;175.17;;;17.30;99.90;;;;;;6350233;22;20744;-93
2021/07/08 19:41:41;;;;;;;233.90;223.93;;;17.30;99.90;;;;;;6349990;22;20439;-93
2021/07/08 19:44:08;;;;;;;236.43;225.70;;;17.40;99.90;;;;;;6351079;22;20456;-93
2021/07/08 19:46:35;;;;;;;237.13;227.33;;;17.30;99.90;;;;;;6340338;22;20467;-92
2021/07/08 19:49:06;;;;;;;279.43;268.37;;;17.30;99.90;;;;;;6350380;22;20408;-93
2021/07/08 19:51:47;;;;;;;294.23;283.13;;;17.20;99.90;;;;;;6339667;22;20398;-92
2021/07/08 19:54:21;;;;;;;267.87;257.20;;;17.20;99.90;;;;;;6340142;22;20476;-93
2021/07/08 19:56:49;;;;;;;243.23;233.23;;;17.20;99.90;;;;;;6348489;22;20405;-93
2021/07/08 19:59:18;;;;;;;283.37;271.97;;;17.20;99.90;;;;;;6349807;22;20928;-94
2021/07/08 20:01:48;;;;;;;347.07;334.27;;;17.10;99.90;;;;;;6340621;22;20397;-91
2021/07/08 20:04:17;;;;;;;285.40;274.10;;;17.10;99.90;;;;;;6339801;22;20402;-91
2021/07/08 20:07:00;;;;;;;335.73;322.57;;;17.10;99.90;;;;;;6350615;22;20407;-92
2021/07/08 20:09:29;;;;;;;335.33;322.83;;;17.10;99.90;;;;;;6350180;22;20935;-92
2021/07/08 20:12:08;;;;;;;337.17;324.77;;;17.10;99.90;;;;;;6338676;22;20458;-93
2021/07/08 20:14:35;;;;;;;356.87;343.03;;;17.10;99.90;;;;;;6340546;22;20958;-91
2021/07/08 20:17:04;;;;;;;346.67;333.90;;;17.10;99.90;;;;;;6350886;22;20405;-93
2021/07/08 20:19:32;;;;;;;351.53;337.67;;;17.10;99.90;;;;;;6349704;22;20927;-90
2021/07/08 20:22:05;;;;;;;346.27;333.27;;;17.10;99.90;;;;;;6349962;22;20479;-91
2021/07/08 20:24:38;;;;;;;348.50;336.07;;;17.00;99.90;;;;;;6349660;22;20446;-88
2021/07/08 20:27:09;;;;;;;350.83;337.27;;;17.00;99.90;;;;;;6349561;22;20408;-93
2021/07/08 20:29:40;;;;;;;340.30;327.83;;;17.00;99.90;;;;;;6350664;22;20436;-92
2021/07/08 20:32:17;;;;;;;336.57;324.00;;;17.00;99.90;;;;;;6339736;22;20398;-91